Régionale - Sprint - CL n°2 Lomme (59) - Dames

Date : 13/02/2011
Distance : 2,500 km

Place Nom Licence Catégorie Club Temps min/km CN à J-60 Points Différence Nouveau CN
1 LOTERIE Murielle 7044 D40 5907NO 0:21:01 8'24 3992 4264 +272 4097
2 LAMINETTE Pauline 14911 D20 5907NO 0:21:11 8'28 4335 4230 -105 4344
3 VANOVERBERGHE Camille 21323 D16 6208NO 0:21:25 8'34 4108 4184 +76 4163
4 LERICHE Clotilde 9427 D20 5907NO 0:22:59 9'11 3588 3899 +311 3447
5 ASTOLFI Judith 21418 D40 5909NO 0:23:42 9'28 3150 3781 +631 3288
6 ROUX Catherine 13270 D40 6205NO 0:24:43 9'53 3994 3626 -368 4015
7 CAYLA Aurélie 23650 D21 5906NO 0:24:51 9'56 3606 0
8 VANDOMME Elodie 23560 D21 6208NO 0:25:31 10'12 2897 3512 +615 3126
9 GOURLAIN Mathilde 18299 D16 6205NO 0:26:32 10'36 3519 3377 -142 3636
10 DEPERSIN Isabelle 17899 D35 5907NO 0:27:04 10'49 3076 3311 +235 3212
11 CIESLA Mathilde 24570 D21 5908NO 0:27:17 10'54 3284 0
12 GUILMAIN Melanie 20572 D16 6208NO 0:27:23 10'57 3786 3273 -513 3786
13 CAT Alain 17630 H40 5907NO 0:29:25 11'46 4170 3046 -1124 3878
14 POULAIN Odile 1948 D50 5908NO 0:29:54 11'57 2948 2997 +49 2978
15 GOURLAIN Marguerite-marie 19155 D40 6205NO 0:30:08 12'03 2772 2974 +202 2968
16 GERBEAUX Marie-jeanne 22417 D55 6205NO 0:30:59 12'23 2814 2892 +78 2881
17 ROLIN Charlotte 23947 D35 6208NO 0:33:01 13'12 2714 1775
18 BELLE Emmanuelle 8258 D35 6205NO 0:33:01 13'12 2714 0
19 DURIEZ Caroline 24170 D21 6208NO 0:34:03 13'37 2632 2063
20 ARROQUI Anne-sophie 23424 D40 5909NO 0:34:33 13'49 2524 2594 +70 2610
21 GRENOUILLAT Annick 13087 D50 5907NO 0:34:48 13'55 2617 2575 -42 2734
22 VANOVERBERGHE Nathalie 22237 D40 6208NO 0:39:40 15'52 2739 2259 -480 2739
23 JUDAS Sylvaine 13635 D55 6208NO 0:39:54 15'57 1734 2246 +512 2199
24 LAMINETTE M-Odile 17201 D50 5907NO 0:41:02 16'24 2632 2184 -448 2682
25 CAMBIER Emily 23844 D21 5906NO 0:42:58 17'11 2086 0
26 BOUCHEZ Marie-Pascale 24241 D40 6208NO 0:43:03 17'13 2082 1999
27 BEN KHALED Isabelle 13761 D50 5908NO 0:44:28 17'47 2015 0
28 LUDEWIG-JAMES Carol 15894 D70 5907NO 0:48:42 19'28 2160 1840 -320 2160
29 CLAVEL Nathalie 22803 D40 5907NO 0:49:11 19'40 1878 1822 -56 1886
30 GALET Isabelle 15398 D45 6208NO 0:52:15 20'54 0 1715 0
31 EJSMONT Martine 14164 D65 6208NO 1:00:20 24'08 1806 1485 -321 1697
GERBEAUX Nathanaëlle 18312 D18 6205NO pm None 4684 0 4684
BOULANGER Isabelle 10639 D50 5907NO pm None 3326 0 3335
DE BLAERE Corinne 23842 D40 5906NO pm None 0 0 0